createdAt,value
2023-02-07T00:02:17.465Z,102302.19
2023-02-07T00:07:20.806Z,102304.39
2023-02-07T00:12:24.122Z,102295.77
2023-02-07T00:17:30.098Z,102301.59
2023-02-07T00:22:33.809Z,102301.47
2023-02-07T00:27:37.070Z,102301.61
2023-02-07T00:32:40.433Z,102304.73
2023-02-07T00:37:43.643Z,102309.63
2023-02-07T00:42:46.849Z,102302.66
2023-02-07T00:47:50.278Z,102299.92
2023-02-07T00:52:53.576Z,102301.75
2023-02-07T00:57:56.780Z,102312.04
2023-02-07T01:03:00.000Z,102313.14
2023-02-07T01:08:03.416Z,102312.82
2023-02-07T01:13:06.816Z,102305.70
2023-02-07T01:18:10.245Z,102312.67
2023-02-07T01:23:15.486Z,102298.52
2023-02-07T01:28:18.833Z,102302.95
2023-02-07T01:33:22.009Z,102298.91
2023-02-07T01:38:25.324Z,102293.32
2023-02-07T01:43:28.834Z,102291.98
2023-02-07T01:48:36.034Z,102297.38
2023-02-07T01:53:40.704Z,102297.29
2023-02-07T01:58:44.547Z,102295.99
2023-02-07T02:03:50.974Z,102288.77
2023-02-07T02:08:59.620Z,102286.66
2023-02-07T02:14:08.864Z,102277.55
2023-02-07T02:19:32.663Z,102277.18
2023-02-07T02:25:18.549Z,102269.54
2023-02-07T02:30:35.622Z,102274.42
2023-02-07T02:35:57.961Z,102275.80
2023-02-07T02:41:11.819Z,102276.36
2023-02-07T02:46:22.571Z,102276.59
2023-02-07T02:51:30.137Z,102284.86
2023-02-07T02:56:45.416Z,102290.73
2023-02-07T03:02:05.219Z,102283.74
2023-02-07T03:07:43.431Z,102269.74
2023-02-07T03:13:15.936Z,102277.95
2023-02-07T03:18:32.754Z,102289.77
2023-02-07T03:23:38.522Z,102284.79
2023-02-07T03:28:43.367Z,102259.42
2023-02-07T03:33:51.694Z,102261.75
2023-02-07T03:38:55.518Z,102260.27
2023-02-07T03:44:07.223Z,102259.87
2023-02-07T03:49:12.088Z,102257.06
2023-02-07T03:54:15.483Z,102252.30
2023-02-07T03:59:19.101Z,102252.55
2023-02-07T04:04:22.829Z,102251.10
2023-02-07T04:09:26.341Z,102254.70
2023-02-07T04:14:29.957Z,102250.94
2023-02-07T04:19:33.683Z,102248.84
2023-02-07T04:24:37.296Z,102245.01
2023-02-07T04:29:40.720Z,102246.27
2023-02-07T04:34:44.222Z,102244.35
2023-02-07T04:39:47.947Z,102258.69
2023-02-07T04:44:51.462Z,102262.45
2023-02-07T04:49:55.073Z,102267.11
2023-02-07T04:54:58.797Z,102261.04
2023-02-07T05:00:03.844Z,102261.17
2023-02-07T05:05:08.182Z,102252.30
2023-02-07T05:10:11.496Z,102249.50
2023-02-07T05:15:15.114Z,102257.06
2023-02-07T05:20:19.907Z,102258.09
2023-02-07T05:25:23.683Z,102265.69
2023-02-07T05:30:27.393Z,102265.70
2023-02-07T05:35:42.287Z,102262.26
2023-02-07T05:40:46.371Z,102263.39
2023-02-07T05:45:49.977Z,102256.91
2023-02-07T05:50:53.644Z,102250.52
2023-02-07T05:55:57.267Z,102250.11
2023-02-07T06:01:00.879Z,102257.55
2023-02-07T06:06:04.715Z,102264.73
2023-02-07T06:11:08.322Z,102263.70
2023-02-07T06:16:12.014Z,102271.36
2023-02-07T06:21:15.656Z,102273.03
2023-02-07T06:26:19.276Z,102275.52
2023-02-07T06:31:22.957Z,102281.23
2023-02-07T06:36:26.920Z,102275.73
2023-02-07T06:41:30.454Z,102276.16
2023-02-07T06:46:34.177Z,102279.73
2023-02-07T06:51:37.776Z,102288.92
2023-02-07T06:56:41.397Z,102300.09
2023-02-07T07:01:44.977Z,102309.75
2023-02-07T07:06:48.598Z,102314.92
2023-02-07T07:11:52.151Z,102328.17
2023-02-07T07:16:56.855Z,102333.69
2023-02-07T07:22:01.025Z,102342.80
2023-02-07T07:27:04.852Z,102341.92
2023-02-07T07:32:08.361Z,102339.52
2023-02-07T07:37:15.054Z,102339.40
2023-02-07T07:42:18.564Z,102342.79
2023-02-07T07:47:22.492Z,102348.27
2023-02-07T07:52:26.106Z,102354.14
2023-02-07T07:57:29.725Z,102353.17
2023-02-07T08:02:33.246Z,102349.75
2023-02-07T08:07:36.855Z,102336.55
2023-02-07T08:12:40.725Z,102331.58
2023-02-07T08:17:45.729Z,102340.02
2023-02-07T08:22:49.758Z,102339.98
2023-02-07T08:27:53.714Z,102337.08
2023-02-07T08:32:57.200Z,102337.17
2023-02-07T08:38:01.019Z,102337.23
2023-02-07T08:43:07.402Z,102327.54
2023-02-07T08:48:11.023Z,102323.23
2023-02-07T08:53:14.645Z,102326.54
2023-02-07T08:58:18.256Z,102321.31
2023-02-07T09:03:24.537Z,102311.91
2023-02-07T09:08:28.054Z,102310.30
2023-02-07T09:13:31.671Z,102321.91
2023-02-07T09:18:35.184Z,102330.97
2023-02-07T09:23:38.704Z,102324.30
2023-02-07T09:28:42.328Z,102320.98
2023-02-07T09:33:46.055Z,102317.40
2023-02-07T09:38:50.072Z,102320.23
2023-02-07T09:44:05.113Z,102321.09
2023-02-07T09:49:16.560Z,102315.86
2023-02-07T09:54:32.262Z,102316.06
2023-02-07T10:00:02.860Z,102328.04
2023-02-07T10:05:37.350Z,102336.21
2023-02-07T10:10:47.525Z,102334.74
2023-02-07T10:16:16.126Z,102339.40
2023-02-07T10:21:20.149Z,102342.00
2023-02-07T10:26:42.113Z,102336.94
2023-02-07T10:31:52.478Z,102343.27
2023-02-07T10:36:58.394Z,102345.15
2023-02-07T10:42:01.868Z,102347.61
2023-02-07T10:47:07.862Z,102345.40
2023-02-07T10:52:31.936Z,102356.14
2023-02-07T10:57:35.972Z,102356.00
2023-02-07T11:02:49.145Z,102353.55
2023-02-07T11:08:00.295Z,102345.61
2023-02-07T11:13:06.004Z,102336.27
2023-02-07T11:18:38.287Z,102335.35
2023-02-07T11:23:45.056Z,102334.08
2023-02-07T11:28:54.287Z,102336.44
2023-02-07T11:34:10.132Z,102330.77
2023-02-07T11:39:18.837Z,102335.06
2023-02-07T11:44:25.055Z,102335.75
2023-02-07T11:49:39.590Z,102343.78
2023-02-07T11:54:51.013Z,102337.86
2023-02-07T12:00:23.280Z,102335.29
2023-02-07T12:05:35.824Z,102332.34
2023-02-07T12:10:43.108Z,102312.94
2023-02-07T12:16:08.961Z,102308.23
2023-02-07T12:21:36.438Z,102318.95
2023-02-07T12:26:58.789Z,102317.79
2023-02-07T12:32:14.473Z,102323.50
2023-02-07T12:37:20.775Z,102330.42
2023-02-07T12:42:53.779Z,102337.88
2023-02-07T12:48:10.925Z,102331.15
2023-02-07T12:53:46.094Z,102334.00
2023-02-07T12:59:14.987Z,102327.63
2023-02-07T13:04:33.757Z,102312.73
2023-02-07T13:09:43.716Z,102317.61
2023-02-07T13:15:29.826Z,102317.15
2023-02-07T13:20:47.782Z,102312.82
2023-02-07T13:25:57.746Z,102321.25
2023-02-07T13:31:02.420Z,102323.46
2023-02-07T13:36:16.043Z,102321.80
2023-02-07T13:41:34.305Z,102325.45
2023-02-07T13:46:56.672Z,102327.70
2023-02-07T13:52:12.978Z,102330.16
2023-02-07T13:58:01.877Z,102331.12
2023-02-07T14:03:07.037Z,102340.56
2023-02-07T14:08:16.799Z,102345.52
2023-02-07T14:13:34.744Z,102340.48
2023-02-07T14:18:41.121Z,102337.67
2023-02-07T14:23:59.678Z,102339.49
2023-02-07T14:29:51.552Z,102336.05
2023-02-07T14:35:21.257Z,102336.69
2023-02-07T14:40:31.757Z,102349.72
2023-02-07T14:45:38.166Z,102358.36
2023-02-07T14:50:53.006Z,102358.11
2023-02-07T14:56:03.133Z,102359.30
2023-02-07T15:01:13.981Z,102365.73
2023-02-07T15:06:31.675Z,102366.05
2023-02-07T15:16:25.913Z,102373.81
2023-02-07T15:22:20.441Z,102377.98
2023-02-07T15:27:28.780Z,102377.70
2023-02-07T15:32:34.420Z,102380.18
2023-02-07T15:37:37.137Z,102381.25
2023-02-07T15:42:58.894Z,102385.05
2023-02-07T15:48:07.257Z,102387.52
2023-02-07T15:53:21.066Z,102396.13
2023-02-07T15:58:25.202Z,102397.20
2023-02-07T16:03:30.481Z,102402.42
2023-02-07T16:08:41.214Z,102406.99
2023-02-07T16:13:52.948Z,102415.56
2023-02-07T16:19:18.300Z,102422.06
2023-02-07T16:24:27.060Z,102427.23
2023-02-07T16:29:29.201Z,102424.35
2023-02-07T16:34:31.737Z,102428.74
2023-02-07T16:39:33.982Z,102431.40
2023-02-07T16:44:36.880Z,102436.08
2023-02-07T16:49:39.581Z,102436.67
2023-02-07T16:54:42.783Z,102441.23
2023-02-07T16:59:45.089Z,102439.73
2023-02-07T17:04:47.361Z,102437.99
2023-02-07T17:09:50.059Z,102444.88
2023-02-07T17:14:53.164Z,102445.90
2023-02-07T17:19:55.357Z,102443.21
2023-02-07T17:24:59.684Z,102438.11
2023-02-07T17:30:04.869Z,102440.45
2023-02-07T17:35:07.751Z,102440.49
2023-02-07T17:40:22.201Z,102439.84
2023-02-07T17:45:24.799Z,102449.34
2023-02-07T17:50:33.280Z,102460.27
2023-02-07T17:55:37.045Z,102464.99
2023-02-07T18:00:40.106Z,102477.04
2023-02-07T18:05:42.602Z,102476.50
2023-02-07T18:10:44.842Z,102478.25
2023-02-07T18:15:47.024Z,102483.29
2023-02-07T18:20:49.298Z,102488.27
2023-02-07T18:25:51.788Z,102498.85
2023-02-07T18:30:54.155Z,102503.71
2023-02-07T18:35:57.499Z,102509.75
2023-02-07T18:40:59.674Z,102519.95
2023-02-07T18:46:07.474Z,102519.73
2023-02-07T18:51:12.216Z,102515.75
2023-02-07T18:56:17.490Z,102508.02
2023-02-07T19:01:20.739Z,102507.36
2023-02-07T19:06:25.119Z,102506.37
2023-02-07T19:11:27.473Z,102510.95
2023-02-07T19:16:29.812Z,102515.42
2023-02-07T19:21:32.203Z,102511.34
2023-02-07T19:26:35.414Z,102508.67
2023-02-07T19:31:39.951Z,102505.94
2023-02-07T19:36:42.246Z,102510.73
2023-02-07T19:41:44.418Z,102518.97
2023-02-07T19:46:46.675Z,102522.67
2023-02-07T19:51:50.838Z,102525.65
2023-02-07T19:56:53.021Z,102530.59
2023-02-07T20:01:55.429Z,102534.32
2023-02-07T20:06:59.640Z,102533.82
2023-02-07T20:12:01.827Z,102527.83
2023-02-07T20:17:04.224Z,102529.57
2023-02-07T20:22:06.506Z,102532.77
2023-02-07T20:27:09.422Z,102534.42
2023-02-07T20:32:13.744Z,102536.77
2023-02-07T20:37:15.723Z,102540.86
2023-02-07T20:42:19.241Z,102538.38
2023-02-07T20:47:21.424Z,102541.92
2023-02-07T20:52:24.425Z,102541.39
2023-02-07T20:57:26.815Z,102543.75
2023-02-07T21:02:29.147Z,102549.36
2023-02-07T21:07:31.798Z,102552.48
2023-02-07T21:12:59.282Z,102554.51
2023-02-07T21:18:17.229Z,102566.78
2023-02-07T21:23:19.617Z,102572.77
2023-02-07T21:28:21.938Z,102574.66
2023-02-07T21:33:24.090Z,102574.17
2023-02-07T21:38:26.378Z,102587.71
2023-02-07T21:43:28.554Z,102589.94
2023-02-07T21:48:31.150Z,102594.92
2023-02-07T21:53:34.155Z,102601.24
2023-02-07T21:58:36.852Z,102606.31
2023-02-07T22:03:41.233Z,102613.31
2023-02-07T22:08:47.685Z,102618.92
2023-02-07T22:13:52.299Z,102622.32
2023-02-07T22:18:56.679Z,102624.41
2023-02-07T22:23:59.351Z,102624.71
2023-02-07T22:29:03.471Z,102622.33
2023-02-07T22:34:11.513Z,102617.36
2023-02-07T22:39:15.966Z,102619.52
2023-02-07T22:44:18.113Z,102616.00
2023-02-07T22:49:20.302Z,102626.53
2023-02-07T22:54:22.480Z,102632.42
2023-02-07T22:59:24.664Z,102631.45
2023-02-07T23:04:26.849Z,102631.92
2023-02-07T23:09:29.038Z,102638.17
2023-02-07T23:14:31.322Z,102640.62
2023-02-07T23:19:33.503Z,102640.45
2023-02-07T23:24:35.789Z,102642.50
2023-02-07T23:29:38.487Z,102641.38
2023-02-07T23:34:40.670Z,102636.98
2023-02-07T23:39:43.061Z,102639.16
2023-02-07T23:44:45.348Z,102638.77
2023-02-07T23:49:47.736Z,102644.89
2023-02-07T23:54:50.024Z,102645.54
2023-02-07T23:59:52.313Z,102649.66
